createdAt,value
2023-04-27T08:37:59.370Z,2.97
2023-04-27T08:40:26.079Z,2.80
2023-04-27T08:42:58.230Z,2.90
2023-04-27T08:45:26.251Z,2.33
2023-04-27T08:47:53.644Z,2.10
2023-04-27T08:50:20.404Z,2.30
2023-04-27T08:52:48.059Z,2.53
2023-04-27T08:55:16.709Z,2.33
2023-04-27T08:57:57.210Z,2.10
2023-04-27T09:00:25.159Z,2.10
2023-04-27T09:02:52.161Z,2.10
2023-04-27T09:05:20.450Z,2.07
2023-04-27T09:08:16.686Z,1.50
2023-04-27T09:10:45.393Z,1.60
2023-04-27T09:13:12.016Z,1.77
2023-04-27T09:15:45.015Z,2.20
2023-04-27T09:18:21.037Z,2.30
2023-04-27T09:20:52.713Z,2.07
2023-04-27T09:23:29.182Z,2.17
2023-04-27T09:25:56.884Z,2.00
2023-04-27T09:28:24.596Z,2.70
2023-04-27T09:30:55.959Z,2.27
2023-04-27T09:33:24.159Z,2.30
2023-04-27T09:35:51.608Z,2.27
2023-04-27T09:38:22.744Z,2.17
2023-04-27T09:40:50.777Z,1.90
2023-04-27T09:43:17.540Z,2.03
2023-04-27T09:45:44.981Z,2.20
2023-04-27T09:48:12.832Z,2.20
2023-04-27T09:50:43.277Z,2.70
2023-04-27T09:53:13.860Z,2.30
2023-04-27T09:55:49.993Z,2.70
2023-04-27T09:58:39.229Z,2.70
2023-04-27T10:01:29.708Z,2.87
2023-04-27T10:04:28.199Z,2.67
2023-04-27T10:07:03.862Z,2.63
2023-04-27T10:09:49.449Z,2.20
2023-04-27T10:12:26.588Z,2.43
2023-04-27T10:15:00.209Z,2.70
2023-04-27T10:17:32.003Z,2.83
2023-04-27T10:20:01.199Z,3.13
2023-04-27T10:22:41.987Z,2.57
2023-04-27T10:25:24.414Z,2.27
2023-04-27T10:27:58.331Z,2.53
2023-04-27T10:30:27.348Z,2.80
2023-04-27T10:32:56.330Z,2.57
2023-04-27T10:35:36.457Z,2.70
2023-04-27T10:38:21.429Z,3.00
2023-04-27T10:40:56.755Z,3.03
2023-04-27T10:43:29.427Z,2.78
2023-04-27T10:46:11.477Z,2.70
2023-04-27T10:48:43.342Z,2.90
2023-04-27T10:51:10.488Z,3.00
2023-04-27T10:53:37.777Z,2.83
2023-04-27T10:56:06.737Z,2.97
2023-04-27T10:58:47.564Z,2.60
2023-04-27T11:01:29.628Z,3.00
2023-04-27T11:04:00.596Z,3.37
2023-04-27T11:06:28.565Z,2.97
2023-04-27T11:08:55.566Z,3.30
2023-04-27T11:11:22.680Z,3.07
2023-04-27T11:13:49.985Z,3.50
2023-04-27T11:16:16.808Z,3.00
2023-04-27T11:18:43.473Z,3.20
2023-04-27T11:21:15.212Z,3.03
2023-04-27T11:23:42.675Z,4.00
2023-04-27T11:26:17.121Z,3.20
2023-04-27T11:28:46.624Z,2.80
2023-04-27T11:31:13.215Z,3.00
2023-04-27T11:33:47.553Z,3.00
2023-04-27T11:36:18.100Z,2.80
2023-04-27T11:38:45.216Z,3.40
2023-04-27T11:41:12.091Z,2.90
2023-04-27T11:43:45.981Z,3.40
2023-04-27T11:46:13.182Z,2.72
2023-04-27T11:48:40.337Z,3.00
2023-04-27T11:51:10.118Z,3.10
2023-04-27T11:53:38.764Z,3.30
2023-04-27T11:56:07.909Z,2.93
2023-04-27T11:58:36.154Z,3.40
2023-04-27T12:01:04.294Z,2.93
2023-04-27T12:03:31.854Z,3.40
2023-04-27T12:06:11.326Z,3.97
2023-04-27T12:08:45.443Z,3.83
2023-04-27T12:11:12.006Z,3.30
2023-04-27T12:13:38.546Z,3.03
2023-04-27T12:16:05.515Z,3.30
2023-04-27T12:18:32.194Z,3.30
2023-04-27T12:21:02.806Z,3.00
2023-04-27T12:23:29.993Z,3.45
2023-04-27T12:25:56.611Z,2.92
2023-04-27T12:28:23.315Z,3.40
2023-04-27T12:30:50.202Z,3.53
2023-04-27T12:33:17.217Z,3.97
2023-04-27T12:35:43.925Z,3.70
2023-04-27T12:38:10.502Z,3.40
2023-04-27T12:40:37.448Z,3.53
2023-04-27T12:43:04.102Z,3.50
2023-04-27T12:45:30.927Z,3.13
2023-04-27T12:48:02.466Z,3.53
2023-04-27T12:50:31.926Z,3.70
2023-04-27T12:52:58.649Z,3.20
2023-04-27T12:57:58.226Z,3.60
2023-04-27T13:00:25.370Z,3.77
2023-04-27T13:02:52.586Z,3.47
2023-04-27T13:05:19.709Z,3.17
2023-04-27T13:07:46.250Z,3.17
2023-04-27T13:10:13.826Z,4.30
2023-04-27T13:12:40.693Z,4.03
2023-04-27T13:15:07.952Z,3.80
2023-04-27T13:17:34.615Z,3.50
2023-04-27T13:20:01.273Z,3.40
2023-04-27T13:22:28.336Z,4.03
2023-04-27T13:24:55.452Z,3.50
2023-04-27T13:27:25.005Z,4.33
2023-04-27T13:29:51.712Z,3.97
2023-04-27T13:32:18.538Z,4.13
2023-04-27T13:34:45.329Z,3.70
2023-04-27T13:37:11.924Z,3.80
2023-04-27T13:39:38.540Z,3.43
2023-04-27T13:42:05.417Z,4.30
2023-04-27T13:44:32.007Z,4.03
2023-04-27T13:46:58.665Z,3.50
2023-04-27T13:49:25.841Z,4.03
2023-04-27T13:51:52.562Z,3.70
2023-04-27T13:54:19.911Z,3.60
2023-04-27T13:56:46.506Z,4.00
2023-04-27T13:59:13.175Z,4.10
2023-04-27T14:01:40.037Z,4.40
2023-04-27T14:04:07.199Z,3.97
2023-04-27T14:06:33.893Z,4.23
2023-04-27T14:09:00.485Z,3.73
2023-04-27T14:11:27.044Z,3.73
2023-04-27T14:13:53.695Z,3.93
2023-04-27T14:16:20.872Z,3.60
2023-04-27T14:18:47.459Z,4.27
2023-04-27T14:21:14.077Z,4.27
2023-04-27T14:23:40.862Z,3.50
2023-04-27T14:26:07.491Z,4.03
2023-04-27T14:28:34.508Z,4.93
2023-04-27T14:31:01.127Z,4.33
2023-04-27T14:33:27.684Z,3.97
2023-04-27T14:35:54.409Z,4.40
2023-04-27T14:38:21.045Z,3.93
2023-04-27T14:40:47.782Z,4.10
2023-04-27T14:43:14.373Z,3.40
2023-04-27T14:45:50.813Z,4.50
2023-04-27T14:48:20.913Z,3.73
2023-04-27T14:50:47.543Z,3.83
2023-04-27T14:53:14.070Z,3.80
2023-04-27T14:55:41.192Z,4.30
2023-04-27T14:58:07.777Z,4.73
2023-04-27T15:00:34.376Z,4.30
2023-04-27T15:03:01.143Z,4.47
2023-04-27T15:05:28.015Z,4.70
2023-04-27T15:07:54.844Z,4.23
2023-04-27T15:10:21.406Z,4.27
2023-04-27T15:12:48.017Z,3.97
2023-04-27T15:15:14.640Z,4.20
2023-04-27T15:17:41.595Z,4.30
2023-04-27T15:20:08.586Z,4.97
2023-04-27T15:22:35.162Z,4.03
2023-04-27T15:25:01.925Z,4.43
2023-04-27T15:27:28.581Z,4.37
2023-04-27T15:29:55.637Z,4.13
2023-04-27T15:32:24.458Z,4.30
2023-04-27T15:34:51.734Z,4.53
2023-04-27T15:37:18.430Z,4.13
2023-04-27T15:39:44.983Z,5.07
2023-04-27T15:42:11.594Z,5.30
2023-04-27T15:44:38.143Z,5.63
2023-04-27T15:47:05.048Z,5.30
2023-04-27T15:49:33.155Z,3.80
2023-04-27T15:52:02.560Z,4.60
2023-04-27T15:54:29.107Z,4.63
2023-04-27T15:56:55.784Z,5.40
2023-04-27T15:59:22.369Z,5.33
2023-04-27T16:01:48.952Z,5.20
2023-04-27T16:04:15.707Z,4.93
2023-04-27T16:06:42.593Z,5.70
2023-04-27T16:09:10.549Z,4.90
2023-04-27T16:11:37.292Z,5.57
2023-04-27T16:14:04.058Z,5.40
2023-04-27T16:16:30.840Z,4.90
2023-04-27T16:18:58.704Z,5.10
2023-04-27T16:21:25.355Z,4.70
2023-04-27T16:23:51.985Z,5.73
2023-04-27T16:26:18.545Z,5.27
2023-04-27T16:28:45.166Z,4.77
2023-04-27T16:31:14.789Z,5.37
2023-04-27T16:33:41.874Z,5.40
2023-04-27T16:36:10.471Z,5.20
2023-04-27T16:38:39.114Z,4.90
2023-04-27T16:41:06.106Z,4.70
2023-04-27T16:43:33.395Z,4.50
2023-04-27T16:46:00.100Z,4.70
2023-04-27T16:48:27.329Z,4.63
2023-04-27T16:50:55.703Z,4.87
2023-04-27T16:53:22.521Z,5.07
2023-04-27T16:55:49.115Z,5.30
2023-04-27T16:58:15.867Z,5.10
2023-04-27T17:00:42.837Z,5.70
2023-04-27T17:03:09.809Z,5.07
2023-04-27T17:05:36.871Z,5.37
2023-04-27T17:08:05.151Z,4.90
2023-04-27T17:10:32.382Z,5.00
2023-04-27T17:12:59.337Z,5.90
2023-04-27T17:15:28.408Z,5.47
2023-04-27T17:17:55.315Z,5.70
2023-04-27T17:20:22.297Z,4.83
2023-04-27T17:22:48.868Z,5.20
2023-04-27T17:25:16.659Z,5.40
2023-04-27T17:27:43.294Z,5.30
2023-04-27T17:30:10.686Z,5.40
2023-04-27T17:32:37.313Z,5.33
2023-04-27T17:35:04.123Z,6.00
2023-04-27T17:37:31.609Z,6.30
2023-04-27T17:39:58.521Z,5.60
2023-04-27T17:42:25.328Z,5.60
2023-04-27T17:44:52.006Z,6.03
2023-04-27T17:47:18.920Z,6.10
2023-04-27T17:49:45.759Z,5.60
2023-04-27T17:52:12.412Z,4.57
2023-04-27T17:54:40.952Z,5.57
2023-04-27T17:57:08.914Z,5.00
2023-04-27T17:59:36.522Z,5.83
2023-04-27T18:02:03.187Z,5.30
2023-04-27T18:04:30.091Z,4.93
2023-04-27T18:06:57.139Z,5.10
2023-04-27T18:09:26.125Z,4.47
2023-04-27T18:11:52.896Z,5.30
2023-04-27T18:14:19.457Z,4.53
2023-04-27T18:16:46.146Z,4.93
2023-04-27T18:19:13.255Z,5.33
2023-04-27T18:21:40.426Z,5.30
2023-04-27T18:24:08.025Z,5.20
2023-04-27T18:26:36.467Z,5.60
2023-04-27T18:29:03.506Z,5.33
2023-04-27T18:31:30.145Z,4.87
2023-04-27T18:33:56.772Z,4.50
2023-04-27T18:36:25.500Z,4.93
2023-04-27T18:38:52.237Z,5.03
2023-04-27T18:41:18.927Z,4.83
2023-04-27T18:43:45.563Z,5.93
2023-04-27T18:46:12.283Z,4.97
2023-04-27T18:48:38.880Z,6.93
2023-04-27T18:51:05.518Z,5.07
2023-04-27T18:53:32.167Z,5.10
2023-04-27T18:55:58.733Z,5.90
2023-04-27T18:58:25.311Z,6.30
2023-04-27T19:00:52.104Z,5.90
2023-04-27T19:03:19.239Z,5.90
2023-04-27T19:05:46.775Z,6.10
2023-04-27T19:08:13.418Z,5.23
2023-04-27T19:10:41.333Z,4.90
2023-04-27T19:13:08.081Z,5.27
2023-04-27T19:15:37.459Z,5.20
2023-04-27T19:18:10.530Z,5.43
2023-04-27T19:20:39.188Z,5.10
2023-04-27T19:23:07.749Z,5.67
2023-04-27T19:25:34.577Z,5.70
2023-04-27T19:28:04.173Z,4.90
2023-04-27T19:30:31.002Z,5.27
2023-04-27T19:32:57.577Z,4.90
2023-04-27T19:35:26.260Z,5.23
2023-04-27T19:37:52.926Z,4.90
2023-04-27T19:40:19.506Z,4.97
2023-04-27T19:42:46.112Z,5.17
2023-04-27T19:45:12.990Z,5.40
2023-04-27T19:47:39.724Z,5.40
2023-04-27T19:50:06.986Z,5.37
2023-04-27T19:52:33.596Z,4.97
2023-04-27T19:55:00.230Z,5.13
2023-04-27T19:57:27.075Z,5.20
2023-04-27T19:59:53.676Z,6.07
2023-04-27T20:02:20.449Z,4.77
2023-04-27T20:04:47.250Z,4.93
2023-04-27T20:07:14.087Z,4.90
2023-04-27T20:09:40.812Z,5.13
2023-04-27T20:12:08.214Z,5.50
2023-04-27T20:14:42.321Z,5.60
2023-04-27T20:17:08.939Z,4.53
2023-04-27T20:19:35.527Z,5.40
2023-04-27T20:22:02.972Z,4.60
2023-04-27T20:24:29.773Z,5.63
2023-04-27T20:26:56.427Z,4.87
2023-04-27T20:29:23.039Z,5.17
2023-04-27T20:31:49.699Z,5.03
2023-04-27T20:34:16.526Z,5.90
2023-04-27T20:36:44.184Z,6.17
2023-04-27T20:39:11.864Z,5.07
2023-04-27T20:41:41.938Z,4.70
2023-04-27T20:44:09.182Z,5.57
2023-04-27T20:46:36.425Z,5.00
2023-04-27T20:49:04.187Z,5.50
2023-04-27T20:51:32.786Z,5.37
2023-04-27T20:53:59.714Z,5.37
2023-04-27T20:56:30.470Z,4.90
2023-04-27T20:58:57.593Z,4.83
2023-04-27T21:01:24.249Z,4.67
2023-04-27T21:03:51.199Z,5.40
2023-04-27T21:06:17.863Z,5.27
2023-04-27T21:08:44.436Z,4.70
2023-04-27T21:11:11.797Z,4.90
2023-04-27T21:13:38.526Z,5.27
2023-04-27T21:16:10.280Z,5.10
2023-04-27T21:18:37.166Z,4.90
2023-04-27T21:21:03.898Z,5.17
2023-04-27T21:23:30.444Z,4.90
2023-04-27T21:25:57.064Z,5.40
2023-04-27T21:28:23.620Z,4.77
2023-04-27T21:30:50.220Z,5.40
2023-04-27T21:33:16.862Z,5.10
2023-04-27T21:35:43.548Z,5.80
2023-04-27T21:38:10.482Z,5.20
2023-04-27T21:40:37.525Z,4.67
2023-04-27T21:43:04.147Z,4.43
2023-04-27T21:45:30.833Z,5.87
2023-04-27T21:47:57.406Z,6.13
2023-04-27T21:50:24.061Z,4.97
2023-04-27T21:52:50.629Z,5.13
2023-04-27T21:55:17.329Z,5.13
2023-04-27T21:57:43.904Z,4.20
2023-04-27T22:00:14.196Z,4.77
2023-04-27T22:02:42.390Z,5.33
2023-04-27T22:05:09.576Z,4.70
2023-04-27T22:07:37.210Z,4.60
2023-04-27T22:10:07.469Z,5.73
2023-04-27T22:12:34.008Z,4.60
2023-04-27T22:15:00.836Z,5.47
2023-04-27T22:17:27.778Z,5.50
2023-04-27T22:19:54.723Z,5.37
2023-04-27T22:22:21.322Z,5.00
2023-04-27T22:24:47.894Z,5.67
2023-04-27T22:27:14.439Z,4.73
2023-04-27T22:29:40.972Z,4.50
2023-04-27T22:32:07.651Z,4.70
2023-04-27T22:34:34.337Z,4.83
2023-04-27T22:37:01.958Z,5.13
2023-04-27T22:39:29.715Z,4.83
2023-04-27T22:41:56.256Z,5.50
2023-04-27T22:44:22.813Z,4.70
2023-04-27T22:46:49.396Z,5.10
2023-04-27T22:49:17.217Z,5.43
2023-04-27T22:51:43.755Z,5.07
2023-04-27T22:54:10.402Z,4.90
2023-04-27T22:56:36.985Z,5.40
2023-04-27T22:59:03.510Z,5.00
2023-04-27T23:01:30.201Z,4.63
2023-04-27T23:03:56.934Z,5.03
2023-04-27T23:06:23.542Z,5.60
2023-04-27T23:08:50.236Z,4.80
2023-04-27T23:11:18.717Z,5.80
2023-04-27T23:13:48.054Z,4.93
2023-04-27T23:16:14.830Z,5.20
2023-04-27T23:18:41.762Z,5.60
2023-04-27T23:21:10.073Z,4.70
2023-04-27T23:23:36.687Z,4.60
2023-04-27T23:26:03.275Z,5.43
2023-04-27T23:28:29.814Z,5.80
2023-04-27T23:30:56.377Z,5.70
2023-04-27T23:33:22.998Z,4.53
2023-04-27T23:35:49.579Z,4.90
2023-04-27T23:38:16.138Z,4.93
2023-04-27T23:40:42.740Z,5.00
2023-04-27T23:43:09.296Z,5.30
2023-04-27T23:45:36.133Z,5.50
2023-04-27T23:48:03.842Z,4.90
2023-04-27T23:50:30.475Z,4.60
2023-04-27T23:52:57.025Z,4.90
2023-04-27T23:55:23.545Z,5.33
2023-04-27T23:57:53.167Z,5.87
